sensor_id;sensor_type;location;lat;lon;timestamp;temperature;humidity
15341;DHT22;7770;52.158;5.372;2023-01-30T00:02:18;6.80;99.90
15341;DHT22;7770;52.158;5.372;2023-01-30T00:05:04;6.80;99.90
15341;DHT22;7770;52.158;5.372;2023-01-30T00:07:50;6.80;99.90
15341;DHT22;7770;52.158;5.372;2023-01-30T00:10:36;6.80;99.90
15341;DHT22;7770;52.158;5.372;2023-01-30T00:13:22;6.90;99.90
15341;DHT22;7770;52.158;5.372;2023-01-30T00:16:09;6.90;99.90
15341;DHT22;7770;52.158;5.372;2023-01-30T00:18:55;6.90;99.90
15341;DHT22;7770;52.158;5.372;2023-01-30T00:21:41;6.90;99.90
15341;DHT22;7770;52.158;5.372;2023-01-30T00:24:27;7.00;99.90
15341;DHT22;7770;52.158;5.372;2023-01-30T00:27:13;7.00;99.90
15341;DHT22;7770;52.158;5.372;2023-01-30T00:29:59;7.00;99.90
15341;DHT22;7770;52.158;5.372;2023-01-30T00:32:56;7.00;99.90
15341;DHT22;7770;52.158;5.372;2023-01-30T00:35:47;7.10;99.90
15341;DHT22;7770;52.158;5.372;2023-01-30T00:38:34;7.10;99.90
15341;DHT22;7770;52.158;5.372;2023-01-30T00:41:20;7.10;99.90
15341;DHT22;7770;52.158;5.372;2023-01-30T00:44:07;7.20;99.90
15341;DHT22;7770;52.158;5.372;2023-01-30T00:47:12;7.20;99.90
15341;DHT22;7770;52.158;5.372;2023-01-30T00:49:58;7.30;99.90
15341;DHT22;7770;52.158;5.372;2023-01-30T00:52:44;7.30;99.90
15341;DHT22;7770;52.158;5.372;2023-01-30T00:55:30;7.30;99.90
15341;DHT22;7770;52.158;5.372;2023-01-30T00:58:16;7.30;99.90
15341;DHT22;7770;52.158;5.372;2023-01-30T01:01:02;7.30;99.90
15341;DHT22;7770;52.158;5.372;2023-01-30T01:03:48;7.40;99.90
15341;DHT22;7770;52.158;5.372;2023-01-30T01:06:34;7.40;99.90
15341;DHT22;7770;52.158;5.372;2023-01-30T01:09:20;7.40;99.90
15341;DHT22;7770;52.158;5.372;2023-01-30T01:12:06;7.40;99.90
15341;DHT22;7770;52.158;5.372;2023-01-30T01:14:53;7.30;99.90
15341;DHT22;7770;52.158;5.372;2023-01-30T01:17:40;7.30;99.90
15341;DHT22;7770;52.158;5.372;2023-01-30T01:20:26;7.30;99.90
15341;DHT22;7770;52.158;5.372;2023-01-30T01:23:13;7.30;99.90
15341;DHT22;7770;52.158;5.372;2023-01-30T01:26:02;7.30;99.90
15341;DHT22;7770;52.158;5.372;2023-01-30T01:28:48;7.30;99.90
15341;DHT22;7770;52.158;5.372;2023-01-30T01:31:38;7.30;99.90
15341;DHT22;7770;52.158;5.372;2023-01-30T01:34:24;7.20;99.90
15341;DHT22;7770;52.158;5.372;2023-01-30T01:37:10;7.30;99.90
15341;DHT22;7770;52.158;5.372;2023-01-30T01:39:56;7.30;99.90
15341;DHT22;7770;52.158;5.372;2023-01-30T01:43:01;7.30;99.90
15341;DHT22;7770;52.158;5.372;2023-01-30T01:46:12;7.30;99.90
15341;DHT22;7770;52.158;5.372;2023-01-30T01:49:11;7.20;99.90
15341;DHT22;7770;52.158;5.372;2023-01-30T01:52:18;7.30;99.90
15341;DHT22;7770;52.158;5.372;2023-01-30T01:55:05;7.30;99.90
15341;DHT22;7770;52.158;5.372;2023-01-30T01:58:06;7.30;99.90
15341;DHT22;7770;52.158;5.372;2023-01-30T02:01:02;7.40;99.90
15341;DHT22;7770;52.158;5.372;2023-01-30T02:03:53;7.40;99.90
15341;DHT22;7770;52.158;5.372;2023-01-30T02:06:42;7.40;99.90
15341;DHT22;7770;52.158;5.372;2023-01-30T02:09:27;7.40;99.90
15341;DHT22;7770;52.158;5.372;2023-01-30T02:12:14;7.40;99.90
15341;DHT22;7770;52.158;5.372;2023-01-30T02:15:00;7.40;99.90
15341;DHT22;7770;52.158;5.372;2023-01-30T02:17:47;7.30;99.90
15341;DHT22;7770;52.158;5.372;2023-01-30T02:24:06;7.30;99.90
15341;DHT22;7770;52.158;5.372;2023-01-30T02:27:07;7.30;99.90
15341;DHT22;7770;52.158;5.372;2023-01-30T02:43:56;7.20;99.90
15341;DHT22;7770;52.158;5.372;2023-01-30T02:46:43;7.20;99.90
15341;DHT22;7770;52.158;5.372;2023-01-30T02:49:43;7.20;99.90
15341;DHT22;7770;52.158;5.372;2023-01-30T02:52:33;7.20;99.90
15341;DHT22;7770;52.158;5.372;2023-01-30T02:55:27;7.20;99.90
15341;DHT22;7770;52.158;5.372;2023-01-30T02:58:15;7.20;99.90
15341;DHT22;7770;52.158;5.372;2023-01-30T03:11:01;7.20;99.90
15341;DHT22;7770;52.158;5.372;2023-01-30T03:14:24;7.20;99.90
15341;DHT22;7770;52.158;5.372;2023-01-30T03:17:12;7.20;99.90
15341;DHT22;7770;52.158;5.372;2023-01-30T03:19:59;7.30;99.90
15341;DHT22;7770;52.158;5.372;2023-01-30T03:22:46;7.30;99.90
15341;DHT22;7770;52.158;5.372;2023-01-30T03:25:33;7.30;99.90
15341;DHT22;7770;52.158;5.372;2023-01-30T03:28:20;7.30;99.90
15341;DHT22;7770;52.158;5.372;2023-01-30T03:31:06;7.30;99.90
15341;DHT22;7770;52.158;5.372;2023-01-30T03:33:53;7.20;99.90
15341;DHT22;7770;52.158;5.372;2023-01-30T03:36:39;7.30;99.90
15341;DHT22;7770;52.158;5.372;2023-01-30T03:39:26;7.30;99.90
15341;DHT22;7770;52.158;5.372;2023-01-30T03:42:12;7.40;99.90
15341;DHT22;7770;52.158;5.372;2023-01-30T03:44:57;7.40;99.90
15341;DHT22;7770;52.158;5.372;2023-01-30T03:47:44;7.30;99.90
15341;DHT22;7770;52.158;5.372;2023-01-30T03:50:30;7.40;99.90
15341;DHT22;7770;52.158;5.372;2023-01-30T03:53:16;7.40;99.90
15341;DHT22;7770;52.158;5.372;2023-01-30T03:56:02;7.40;99.90
15341;DHT22;7770;52.158;5.372;2023-01-30T03:58:48;7.40;99.90
15341;DHT22;7770;52.158;5.372;2023-01-30T04:01:34;7.40;99.90
15341;DHT22;7770;52.158;5.372;2023-01-30T04:04:20;7.40;99.90
15341;DHT22;7770;52.158;5.372;2023-01-30T04:07:06;7.50;99.90
15341;DHT22;7770;52.158;5.372;2023-01-30T04:09:52;7.50;99.90
15341;DHT22;7770;52.158;5.372;2023-01-30T04:12:38;7.50;99.90
15341;DHT22;7770;52.158;5.372;2023-01-30T04:15:24;7.50;99.90
15341;DHT22;7770;52.158;5.372;2023-01-30T04:18:10;7.60;99.90
15341;DHT22;7770;52.158;5.372;2023-01-30T04:20:56;7.50;99.90
15341;DHT22;7770;52.158;5.372;2023-01-30T04:23:42;7.60;99.90
15341;DHT22;7770;52.158;5.372;2023-01-30T04:26:28;7.60;99.90
15341;DHT22;7770;52.158;5.372;2023-01-30T04:29:14;7.60;99.90
15341;DHT22;7770;52.158;5.372;2023-01-30T04:32:00;7.60;99.90
15341;DHT22;7770;52.158;5.372;2023-01-30T04:34:46;7.60;99.90
15341;DHT22;7770;52.158;5.372;2023-01-30T04:37:32;7.60;99.90
15341;DHT22;7770;52.158;5.372;2023-01-30T04:40:18;7.60;99.90
15341;DHT22;7770;52.158;5.372;2023-01-30T04:43:04;7.60;99.90
15341;DHT22;7770;52.158;5.372;2023-01-30T04:45:51;7.60;99.90
15341;DHT22;7770;52.158;5.372;2023-01-30T04:48:37;7.60;99.90
15341;DHT22;7770;52.158;5.372;2023-01-30T04:51:24;7.60;99.90
15341;DHT22;7770;52.158;5.372;2023-01-30T04:54:10;7.60;99.90
15341;DHT22;7770;52.158;5.372;2023-01-30T04:56:56;7.60;99.90
15341;DHT22;7770;52.158;5.372;2023-01-30T04:59:42;7.60;99.90
15341;DHT22;7770;52.158;5.372;2023-01-30T05:02:28;7.70;99.90
15341;DHT22;7770;52.158;5.372;2023-01-30T05:05:14;7.70;99.90
15341;DHT22;7770;52.158;5.372;2023-01-30T05:08:00;7.60;99.90
15341;DHT22;7770;52.158;5.372;2023-01-30T05:10:46;7.60;99.90
15341;DHT22;7770;52.158;5.372;2023-01-30T05:13:32;7.60;99.90
15341;DHT22;7770;52.158;5.372;2023-01-30T05:16:19;7.60;99.90
15341;DHT22;7770;52.158;5.372;2023-01-30T05:19:07;7.60;99.90
15341;DHT22;7770;52.158;5.372;2023-01-30T05:21:54;7.60;99.90
15341;DHT22;7770;52.158;5.372;2023-01-30T05:24:40;7.60;99.90
15341;DHT22;7770;52.158;5.372;2023-01-30T05:27:26;7.60;99.90
15341;DHT22;7770;52.158;5.372;2023-01-30T05:30:12;7.60;99.90
15341;DHT22;7770;52.158;5.372;2023-01-30T05:32:58;7.50;99.90
15341;DHT22;7770;52.158;5.372;2023-01-30T05:35:48;7.50;99.90
15341;DHT22;7770;52.158;5.372;2023-01-30T05:38:34;7.50;99.90
15341;DHT22;7770;52.158;5.372;2023-01-30T05:41:21;7.30;99.90
15341;DHT22;7770;52.158;5.372;2023-01-30T05:44:07;7.30;99.90
15341;DHT22;7770;52.158;5.372;2023-01-30T05:46:53;7.20;99.90
15341;DHT22;7770;52.158;5.372;2023-01-30T05:49:39;7.20;99.90
15341;DHT22;7770;52.158;5.372;2023-01-30T05:52:25;7.20;99.90
15341;DHT22;7770;52.158;5.372;2023-01-30T05:55:11;7.10;99.90
15341;DHT22;7770;52.158;5.372;2023-01-30T05:57:57;7.00;99.90
15341;DHT22;7770;52.158;5.372;2023-01-30T06:00:43;7.10;99.90
15341;DHT22;7770;52.158;5.372;2023-01-30T06:03:29;7.00;99.90
15341;DHT22;7770;52.158;5.372;2023-01-30T06:06:15;6.90;99.90
15341;DHT22;7770;52.158;5.372;2023-01-30T06:09:02;6.80;99.90
15341;DHT22;7770;52.158;5.372;2023-01-30T06:11:48;6.60;99.90
15341;DHT22;7770;52.158;5.372;2023-01-30T06:14:36;6.60;99.90
15341;DHT22;7770;52.158;5.372;2023-01-30T06:17:22;6.50;99.90
15341;DHT22;7770;52.158;5.372;2023-01-30T06:20:09;6.40;99.90
15341;DHT22;7770;52.158;5.372;2023-01-30T06:22:56;6.30;99.90
15341;DHT22;7770;52.158;5.372;2023-01-30T06:25:43;6.30;99.90
15341;DHT22;7770;52.158;5.372;2023-01-30T06:28:29;6.30;99.90
15341;DHT22;7770;52.158;5.372;2023-01-30T06:31:15;6.20;99.90
15341;DHT22;7770;52.158;5.372;2023-01-30T06:34:03;6.20;99.90
15341;DHT22;7770;52.158;5.372;2023-01-30T06:36:49;6.10;99.90
15341;DHT22;7770;52.158;5.372;2023-01-30T06:39:35;6.00;99.90
15341;DHT22;7770;52.158;5.372;2023-01-30T06:42:21;6.00;99.90
15341;DHT22;7770;52.158;5.372;2023-01-30T06:45:07;6.00;99.90
15341;DHT22;7770;52.158;5.372;2023-01-30T06:47:54;5.90;99.90
15341;DHT22;7770;52.158;5.372;2023-01-30T06:50:41;6.00;99.90
15341;DHT22;7770;52.158;5.372;2023-01-30T06:53:27;6.00;99.90
15341;DHT22;7770;52.158;5.372;2023-01-30T06:56:15;6.10;99.90
15341;DHT22;7770;52.158;5.372;2023-01-30T06:59:01;6.10;99.90
15341;DHT22;7770;52.158;5.372;2023-01-30T07:01:47;6.10;99.90
15341;DHT22;7770;52.158;5.372;2023-01-30T07:04:33;6.00;99.90
15341;DHT22;7770;52.158;5.372;2023-01-30T07:07:19;6.00;99.90
15341;DHT22;7770;52.158;5.372;2023-01-30T07:10:06;5.90;99.90
15341;DHT22;7770;52.158;5.372;2023-01-30T07:12:53;5.90;99.90
15341;DHT22;7770;52.158;5.372;2023-01-30T07:15:39;5.90;99.90
15341;DHT22;7770;52.158;5.372;2023-01-30T07:18:25;5.90;99.90
15341;DHT22;7770;52.158;5.372;2023-01-30T07:21:11;5.90;99.90
15341;DHT22;7770;52.158;5.372;2023-01-30T07:23:57;5.90;99.90
15341;DHT22;7770;52.158;5.372;2023-01-30T07:26:47;5.90;99.90
15341;DHT22;7770;52.158;5.372;2023-01-30T07:29:37;5.90;99.90
15341;DHT22;7770;52.158;5.372;2023-01-30T07:32:23;6.00;99.90
15341;DHT22;7770;52.158;5.372;2023-01-30T07:35:09;6.00;99.90
15341;DHT22;7770;52.158;5.372;2023-01-30T07:37:56;5.90;99.90
15341;DHT22;7770;52.158;5.372;2023-01-30T07:40:42;5.90;99.90
15341;DHT22;7770;52.158;5.372;2023-01-30T07:43:28;6.00;99.90
15341;DHT22;7770;52.158;5.372;2023-01-30T07:46:15;6.00;99.90
15341;DHT22;7770;52.158;5.372;2023-01-30T07:49:01;6.10;99.90
15341;DHT22;7770;52.158;5.372;2023-01-30T07:51:48;6.20;99.90
15341;DHT22;7770;52.158;5.372;2023-01-30T07:54:35;6.20;99.90
15341;DHT22;7770;52.158;5.372;2023-01-30T07:57:21;6.20;99.90
15341;DHT22;7770;52.158;5.372;2023-01-30T08:00:07;6.30;99.90
15341;DHT22;7770;52.158;5.372;2023-01-30T08:02:55;6.30;99.90
15341;DHT22;7770;52.158;5.372;2023-01-30T08:05:42;6.50;99.90
15341;DHT22;7770;52.158;5.372;2023-01-30T08:08:31;6.50;99.90
15341;DHT22;7770;52.158;5.372;2023-01-30T08:11:17;6.70;99.90
15341;DHT22;7770;52.158;5.372;2023-01-30T08:14:03;7.10;99.90
15341;DHT22;7770;52.158;5.372;2023-01-30T08:16:49;7.70;99.90
15341;DHT22;7770;52.158;5.372;2023-01-30T08:19:36;8.10;99.90
15341;DHT22;7770;52.158;5.372;2023-01-30T08:22:22;8.70;99.90
15341;DHT22;7770;52.158;5.372;2023-01-30T08:25:08;9.20;99.90
15341;DHT22;7770;52.158;5.372;2023-01-30T08:27:54;9.30;99.90
15341;DHT22;7770;52.158;5.372;2023-01-30T08:30:42;9.20;99.90
15341;DHT22;7770;52.158;5.372;2023-01-30T08:33:28;9.00;99.90
15341;DHT22;7770;52.158;5.372;2023-01-30T08:36:14;8.70;99.90
15341;DHT22;7770;52.158;5.372;2023-01-30T08:39:00;8.20;99.90
15341;DHT22;7770;52.158;5.372;2023-01-30T08:41:46;8.00;99.90
15341;DHT22;7770;52.158;5.372;2023-01-30T08:44:32;7.70;99.90
15341;DHT22;7770;52.158;5.372;2023-01-30T08:47:18;7.50;99.90
15341;DHT22;7770;52.158;5.372;2023-01-30T08:50:04;7.40;99.90
15341;DHT22;7770;52.158;5.372;2023-01-30T08:52:51;7.30;99.90
15341;DHT22;7770;52.158;5.372;2023-01-30T08:55:37;7.30;99.90
15341;DHT22;7770;52.158;5.372;2023-01-30T08:58:23;7.30;99.90
15341;DHT22;7770;52.158;5.372;2023-01-30T09:01:09;7.40;99.90
15341;DHT22;7770;52.158;5.372;2023-01-30T09:03:55;7.40;99.90
15341;DHT22;7770;52.158;5.372;2023-01-30T09:06:41;7.50;99.90
15341;DHT22;7770;52.158;5.372;2023-01-30T09:09:28;7.50;99.90
15341;DHT22;7770;52.158;5.372;2023-01-30T09:12:14;7.50;99.90
15341;DHT22;7770;52.158;5.372;2023-01-30T09:15:00;7.50;99.90
15341;DHT22;7770;52.158;5.372;2023-01-30T09:17:46;7.50;99.90
15341;DHT22;7770;52.158;5.372;2023-01-30T09:20:32;7.50;99.90
15341;DHT22;7770;52.158;5.372;2023-01-30T09:23:18;7.50;99.90
15341;DHT22;7770;52.158;5.372;2023-01-30T09:26:05;7.50;99.90
15341;DHT22;7770;52.158;5.372;2023-01-30T09:28:51;7.50;99.90
15341;DHT22;7770;52.158;5.372;2023-01-30T09:31:37;7.50;99.90
15341;DHT22;7770;52.158;5.372;2023-01-30T09:34:25;7.50;99.90
15341;DHT22;7770;52.158;5.372;2023-01-30T09:37:13;7.50;99.90
15341;DHT22;7770;52.158;5.372;2023-01-30T09:39:59;7.60;99.90
15341;DHT22;7770;52.158;5.372;2023-01-30T09:46:13;7.80;99.90
15341;DHT22;7770;52.158;5.372;2023-01-30T09:49:23;8.00;99.90
15341;DHT22;7770;52.158;5.372;2023-01-30T09:52:31;8.00;99.90
15341;DHT22;7770;52.158;5.372;2023-01-30T09:55:27;7.90;99.90
15341;DHT22;7770;52.158;5.372;2023-01-30T09:58:20;7.80;99.90
15341;DHT22;7770;52.158;5.372;2023-01-30T10:01:16;7.80;99.90
15341;DHT22;7770;52.158;5.372;2023-01-30T10:04:22;7.70;99.90
15341;DHT22;7770;52.158;5.372;2023-01-30T10:07:31;7.70;99.90
15341;DHT22;7770;52.158;5.372;2023-01-30T10:10:46;7.70;99.90
15341;DHT22;7770;52.158;5.372;2023-01-30T10:17:04;7.70;99.90
15341;DHT22;7770;52.158;5.372;2023-01-30T10:23:24;7.90;99.90
15341;DHT22;7770;52.158;5.372;2023-01-30T10:26:39;7.90;99.90
15341;DHT22;7770;52.158;5.372;2023-01-30T10:29:35;8.00;99.90
15341;DHT22;7770;52.158;5.372;2023-01-30T10:32:26;8.00;99.90
15341;DHT22;7770;52.158;5.372;2023-01-30T10:35:20;7.90;99.90
15341;DHT22;7770;52.158;5.372;2023-01-30T10:38:15;7.80;99.90
15341;DHT22;7770;52.158;5.372;2023-01-30T10:44:11;7.80;99.90
15341;DHT22;7770;52.158;5.372;2023-01-30T10:47:02;7.80;99.90
15341;DHT22;7770;52.158;5.372;2023-01-30T10:50:17;7.80;99.90
15341;DHT22;7770;52.158;5.372;2023-01-30T10:53:33;7.90;99.90
15341;DHT22;7770;52.158;5.372;2023-01-30T11:06:11;13.20;99.90
15341;DHT22;7770;52.158;5.372;2023-01-30T11:08:58;13.20;99.90
15341;DHT22;7770;52.158;5.372;2023-01-30T11:11:50;12.40;99.90
15341;DHT22;7770;52.158;5.372;2023-01-30T11:15:00;11.70;99.90
15341;DHT22;7770;52.158;5.372;2023-01-30T11:17:48;10.90;99.90
15341;DHT22;7770;52.158;5.372;2023-01-30T11:20:40;10.10;99.90
15341;DHT22;7770;52.158;5.372;2023-01-30T11:23:33;9.60;99.90
15341;DHT22;7770;52.158;5.372;2023-01-30T11:26:32;9.20;99.90
15341;DHT22;7770;52.158;5.372;2023-01-30T11:32:24;8.90;99.90
15341;DHT22;7770;52.158;5.372;2023-01-30T11:35:31;9.00;99.90
15341;DHT22;7770;52.158;5.372;2023-01-30T11:38:43;9.70;99.90
15341;DHT22;7770;52.158;5.372;2023-01-30T11:41:28;10.60;99.90
15341;DHT22;7770;52.158;5.372;2023-01-30T11:44:14;10.20;99.90
15341;DHT22;7770;52.158;5.372;2023-01-30T11:47:03;10.20;99.90
15341;DHT22;7770;52.158;5.372;2023-01-30T11:49:55;10.30;99.90
15341;DHT22;7770;52.158;5.372;2023-01-30T11:52:44;12.40;99.90
15341;DHT22;7770;52.158;5.372;2023-01-30T11:55:32;13.50;99.90
15341;DHT22;7770;52.158;5.372;2023-01-30T11:58:21;13.60;99.90
15341;DHT22;7770;52.158;5.372;2023-01-30T12:01:08;13.40;99.90
15341;DHT22;7770;52.158;5.372;2023-01-30T12:03:56;12.90;99.90
15341;DHT22;7770;52.158;5.372;2023-01-30T12:06:42;12.50;99.90
15341;DHT22;7770;52.158;5.372;2023-01-30T12:09:36;12.00;99.90
15341;DHT22;7770;52.158;5.372;2023-01-30T12:12:27;10.90;99.90
15341;DHT22;7770;52.158;5.372;2023-01-30T12:15:28;10.40;99.90
15341;DHT22;7770;52.158;5.372;2023-01-30T12:18:27;10.20;99.90
15341;DHT22;7770;52.158;5.372;2023-01-30T12:21:44;10.20;99.90
15341;DHT22;7770;52.158;5.372;2023-01-30T12:24:42;9.70;99.90
15341;DHT22;7770;52.158;5.372;2023-01-30T12:30:57;9.30;99.90
15341;DHT22;7770;52.158;5.372;2023-01-30T12:33:49;9.20;99.90
15341;DHT22;7770;52.158;5.372;2023-01-30T12:37:21;9.20;99.90
15341;DHT22;7770;52.158;5.372;2023-01-30T12:40:17;9.20;99.90
15341;DHT22;7770;52.158;5.372;2023-01-30T12:49:44;9.00;99.90
15341;DHT22;7770;52.158;5.372;2023-01-30T12:59:15;8.90;99.90
15341;DHT22;7770;52.158;5.372;2023-01-30T13:12:10;8.70;99.90
15341;DHT22;7770;52.158;5.372;2023-01-30T13:15:26;8.70;99.90
15341;DHT22;7770;52.158;5.372;2023-01-30T13:18:41;8.70;99.90
15341;DHT22;7770;52.158;5.372;2023-01-30T13:22:16;8.80;99.90
15341;DHT22;7770;52.158;5.372;2023-01-30T13:28:32;8.70;99.90
15341;DHT22;7770;52.158;5.372;2023-01-30T13:31:27;8.70;99.90
15341;DHT22;7770;52.158;5.372;2023-01-30T13:37:19;8.60;99.90
15341;DHT22;7770;52.158;5.372;2023-01-30T13:40:35;8.60;99.90
15341;DHT22;7770;52.158;5.372;2023-01-30T13:43:37;8.60;99.90
15341;DHT22;7770;52.158;5.372;2023-01-30T13:46:28;8.60;99.90
15341;DHT22;7770;52.158;5.372;2023-01-30T13:55:52;8.90;99.90
15341;DHT22;7770;52.158;5.372;2023-01-30T13:59:00;8.80;99.90
15341;DHT22;7770;52.158;5.372;2023-01-30T14:02:16;8.70;99.90
15341;DHT22;7770;52.158;5.372;2023-01-30T14:05:08;8.70;99.90
15341;DHT22;7770;52.158;5.372;2023-01-30T14:07:55;8.60;99.90
15341;DHT22;7770;52.158;5.372;2023-01-30T14:10:41;8.70;99.90
15341;DHT22;7770;52.158;5.372;2023-01-30T14:13:27;8.70;99.90
15341;DHT22;7770;52.158;5.372;2023-01-30T14:16:13;8.60;99.90
15341;DHT22;7770;52.158;5.372;2023-01-30T14:19:31;8.60;99.90
15341;DHT22;7770;52.158;5.372;2023-01-30T14:22:23;8.60;99.90
15341;DHT22;7770;52.158;5.372;2023-01-30T14:30:57;8.50;99.90
15341;DHT22;7770;52.158;5.372;2023-01-30T14:33:49;8.50;99.90
15341;DHT22;7770;52.158;5.372;2023-01-30T14:36:36;8.40;99.90
15341;DHT22;7770;52.158;5.372;2023-01-30T14:39:39;8.40;99.90
15341;DHT22;7770;52.158;5.372;2023-01-30T14:42:27;8.40;99.90
15341;DHT22;7770;52.158;5.372;2023-01-30T14:45:15;8.40;99.90
15341;DHT22;7770;52.158;5.372;2023-01-30T14:54:31;8.30;99.90
15341;DHT22;7770;52.158;5.372;2023-01-30T14:57:23;8.30;99.90
15341;DHT22;7770;52.158;5.372;2023-01-30T15:00:17;8.30;99.90
15341;DHT22;7770;52.158;5.372;2023-01-30T15:03:14;8.30;99.90
15341;DHT22;7770;52.158;5.372;2023-01-30T15:06:02;8.30;99.90
15341;DHT22;7770;52.158;5.372;2023-01-30T15:08:51;8.30;99.90
15341;DHT22;7770;52.158;5.372;2023-01-30T15:11:38;8.30;99.90
15341;DHT22;7770;52.158;5.372;2023-01-30T15:14:31;8.30;99.90
15341;DHT22;7770;52.158;5.372;2023-01-30T15:17:40;8.30;99.90
15341;DHT22;7770;52.158;5.372;2023-01-30T15:20:43;8.30;99.90
15341;DHT22;7770;52.158;5.372;2023-01-30T15:31:11;8.20;99.90
15341;DHT22;7770;52.158;5.372;2023-01-30T15:33:59;8.20;99.90
15341;DHT22;7770;52.158;5.372;2023-01-30T15:36:45;8.20;99.90
15341;DHT22;7770;52.158;5.372;2023-01-30T15:39:31;8.10;99.90
15341;DHT22;7770;52.158;5.372;2023-01-30T15:42:17;8.10;99.90
15341;DHT22;7770;52.158;5.372;2023-01-30T15:49:01;8.10;99.90
15341;DHT22;7770;52.158;5.372;2023-01-30T15:52:16;8.10;99.90
15341;DHT22;7770;52.158;5.372;2023-01-30T15:55:04;8.00;99.90
15341;DHT22;7770;52.158;5.372;2023-01-30T15:57:56;8.00;99.90
15341;DHT22;7770;52.158;5.372;2023-01-30T16:00:47;8.00;99.90
15341;DHT22;7770;52.158;5.372;2023-01-30T16:03:39;7.90;99.90
15341;DHT22;7770;52.158;5.372;2023-01-30T16:06:31;7.90;99.90
15341;DHT22;7770;52.158;5.372;2023-01-30T16:09:20;7.80;99.90
15341;DHT22;7770;52.158;5.372;2023-01-30T16:12:27;7.70;99.90
15341;DHT22;7770;52.158;5.372;2023-01-30T16:18:36;7.50;99.90
15341;DHT22;7770;52.158;5.372;2023-01-30T16:21:33;7.30;99.90
15341;DHT22;7770;52.158;5.372;2023-01-30T16:24:22;7.10;99.90
15341;DHT22;7770;52.158;5.372;2023-01-30T16:27:34;7.00;99.90
15341;DHT22;7770;52.158;5.372;2023-01-30T16:30:25;7.00;99.90
15341;DHT22;7770;52.158;5.372;2023-01-30T16:33:15;7.00;99.90
15341;DHT22;7770;52.158;5.372;2023-01-30T16:36:04;6.90;99.90
15341;DHT22;7770;52.158;5.372;2023-01-30T16:39:00;6.90;99.90
15341;DHT22;7770;52.158;5.372;2023-01-30T16:41:53;6.80;99.90
15341;DHT22;7770;52.158;5.372;2023-01-30T16:44:40;6.80;99.90
15341;DHT22;7770;52.158;5.372;2023-01-30T16:47:27;6.80;99.90
15341;DHT22;7770;52.158;5.372;2023-01-30T16:50:20;6.70;99.90
15341;DHT22;7770;52.158;5.372;2023-01-30T16:53:12;6.60;99.90
15341;DHT22;7770;52.158;5.372;2023-01-30T16:56:06;6.60;99.90
15341;DHT22;7770;52.158;5.372;2023-01-30T16:58:57;6.50;99.90
15341;DHT22;7770;52.158;5.372;2023-01-30T17:01:44;6.40;99.90
15341;DHT22;7770;52.158;5.372;2023-01-30T17:04:32;6.40;99.90
15341;DHT22;7770;52.158;5.372;2023-01-30T17:07:33;6.30;99.90
15341;DHT22;7770;52.158;5.372;2023-01-30T17:13:33;6.30;99.90
15341;DHT22;7770;52.158;5.372;2023-01-30T17:16:26;6.30;99.90
15341;DHT22;7770;52.158;5.372;2023-01-30T17:19:16;6.20;99.90
15341;DHT22;7770;52.158;5.372;2023-01-30T17:22:05;6.20;99.90
15341;DHT22;7770;52.158;5.372;2023-01-30T17:25:01;6.20;99.90
15341;DHT22;7770;52.158;5.372;2023-01-30T17:27:48;6.10;99.90
15341;DHT22;7770;52.158;5.372;2023-01-30T17:30:34;6.10;99.90
15341;DHT22;7770;52.158;5.372;2023-01-30T17:33:20;6.00;99.90
15341;DHT22;7770;52.158;5.372;2023-01-30T17:36:20;6.00;99.90
15341;DHT22;7770;52.158;5.372;2023-01-30T17:39:15;6.10;99.90
15341;DHT22;7770;52.158;5.372;2023-01-30T17:42:04;6.20;99.90
15341;DHT22;7770;52.158;5.372;2023-01-30T17:44:53;6.30;99.90
15341;DHT22;7770;52.158;5.372;2023-01-30T17:47:39;6.20;99.90
15341;DHT22;7770;52.158;5.372;2023-01-30T17:50:25;6.20;99.90
15341;DHT22;7770;52.158;5.372;2023-01-30T17:53:13;6.10;99.90
15341;DHT22;7770;52.158;5.372;2023-01-30T17:55:59;6.00;99.90
15341;DHT22;7770;52.158;5.372;2023-01-30T17:58:45;5.90;99.90
15341;DHT22;7770;52.158;5.372;2023-01-30T18:01:31;6.00;99.90
15341;DHT22;7770;52.158;5.372;2023-01-30T18:04:18;6.10;99.90
15341;DHT22;7770;52.158;5.372;2023-01-30T18:07:06;6.00;99.90
15341;DHT22;7770;52.158;5.372;2023-01-30T18:09:54;5.90;99.90
15341;DHT22;7770;52.158;5.372;2023-01-30T18:12:40;5.70;99.90
15341;DHT22;7770;52.158;5.372;2023-01-30T18:15:27;5.70;99.90
15341;DHT22;7770;52.158;5.372;2023-01-30T18:18:13;5.60;99.90
15341;DHT22;7770;52.158;5.372;2023-01-30T18:21:01;5.60;99.90
15341;DHT22;7770;52.158;5.372;2023-01-30T18:23:48;5.50;99.90
15341;DHT22;7770;52.158;5.372;2023-01-30T18:26:34;5.40;99.90
15341;DHT22;7770;52.158;5.372;2023-01-30T18:29:20;5.30;99.90
15341;DHT22;7770;52.158;5.372;2023-01-30T18:32:06;5.20;99.90
15341;DHT22;7770;52.158;5.372;2023-01-30T18:34:52;5.20;99.90
15341;DHT22;7770;52.158;5.372;2023-01-30T18:37:38;5.10;99.90
15341;DHT22;7770;52.158;5.372;2023-01-30T18:40:25;5.10;99.90
15341;DHT22;7770;52.158;5.372;2023-01-30T18:43:11;5.00;99.90
15341;DHT22;7770;52.158;5.372;2023-01-30T18:46:11;5.00;99.90
15341;DHT22;7770;52.158;5.372;2023-01-30T18:48:59;5.00;99.90
15341;DHT22;7770;52.158;5.372;2023-01-30T18:51:45;5.00;99.90
15341;DHT22;7770;52.158;5.372;2023-01-30T18:54:31;5.00;99.90
15341;DHT22;7770;52.158;5.372;2023-01-30T18:57:17;5.10;99.90
15341;DHT22;7770;52.158;5.372;2023-01-30T19:00:03;5.10;99.90
15341;DHT22;7770;52.158;5.372;2023-01-30T19:02:51;5.10;99.90
15341;DHT22;7770;52.158;5.372;2023-01-30T19:05:38;5.10;99.90
15341;DHT22;7770;52.158;5.372;2023-01-30T19:08:24;5.00;99.90
15341;DHT22;7770;52.158;5.372;2023-01-30T19:11:13;4.90;99.90
15341;DHT22;7770;52.158;5.372;2023-01-30T19:14:19;4.90;99.90
15341;DHT22;7770;52.158;5.372;2023-01-30T19:17:05;4.80;99.90
15341;DHT22;7770;52.158;5.372;2023-01-30T19:19:51;4.80;99.90
15341;DHT22;7770;52.158;5.372;2023-01-30T19:22:38;4.70;99.90
15341;DHT22;7770;52.158;5.372;2023-01-30T19:25:24;4.70;99.90
15341;DHT22;7770;52.158;5.372;2023-01-30T19:28:10;4.60;99.90
15341;DHT22;7770;52.158;5.372;2023-01-30T19:30:57;4.60;99.90
15341;DHT22;7770;52.158;5.372;2023-01-30T19:33:44;4.50;99.90
15341;DHT22;7770;52.158;5.372;2023-01-30T19:36:32;4.40;99.90
15341;DHT22;7770;52.158;5.372;2023-01-30T19:39:20;4.40;99.90
15341;DHT22;7770;52.158;5.372;2023-01-30T19:42:06;4.30;99.90
15341;DHT22;7770;52.158;5.372;2023-01-30T19:44:52;4.30;99.90
15341;DHT22;7770;52.158;5.372;2023-01-30T19:47:38;4.20;99.90
15341;DHT22;7770;52.158;5.372;2023-01-30T19:50:24;4.20;99.90
15341;DHT22;7770;52.158;5.372;2023-01-30T19:53:10;4.20;99.90
15341;DHT22;7770;52.158;5.372;2023-01-30T19:55:56;4.10;99.90
15341;DHT22;7770;52.158;5.372;2023-01-30T19:58:42;4.10;99.90
15341;DHT22;7770;52.158;5.372;2023-01-30T20:01:30;4.10;99.90
15341;DHT22;7770;52.158;5.372;2023-01-30T20:04:17;4.10;99.90
15341;DHT22;7770;52.158;5.372;2023-01-30T20:07:03;4.10;99.90
15341;DHT22;7770;52.158;5.372;2023-01-30T20:09:49;4.00;99.90
15341;DHT22;7770;52.158;5.372;2023-01-30T20:12:35;4.00;99.90
15341;DHT22;7770;52.158;5.372;2023-01-30T20:15:21;4.00;99.90
15341;DHT22;7770;52.158;5.372;2023-01-30T20:18:07;4.00;99.90
15341;DHT22;7770;52.158;5.372;2023-01-30T20:20:53;4.00;99.90
15341;DHT22;7770;52.158;5.372;2023-01-30T20:23:39;3.90;99.90
15341;DHT22;7770;52.158;5.372;2023-01-30T20:26:33;3.90;99.90
15341;DHT22;7770;52.158;5.372;2023-01-30T20:29:20;3.90;99.90
15341;DHT22;7770;52.158;5.372;2023-01-30T20:32:06;3.90;99.90